createdAt,value
2023-05-12T00:01:43.557Z,13.20
2023-05-12T00:04:10.583Z,13.20
2023-05-12T00:06:38.261Z,13.10
2023-05-12T00:09:06.168Z,13.10
2023-05-12T00:11:33.027Z,13.10
2023-05-12T00:13:59.860Z,13.00
2023-05-12T00:16:26.965Z,13.00
2023-05-12T00:18:53.995Z,13.00
2023-05-12T00:21:20.953Z,13.00
2023-05-12T00:23:47.840Z,13.00
2023-05-12T00:26:14.744Z,12.90
2023-05-12T00:28:41.534Z,12.90
2023-05-12T00:31:08.662Z,12.90
2023-05-12T00:33:35.639Z,12.90
2023-05-12T00:36:04.020Z,12.80
2023-05-12T00:38:30.850Z,12.80
2023-05-12T00:40:57.688Z,12.80
2023-05-12T00:43:24.539Z,12.80
2023-05-12T00:45:51.533Z,12.80
2023-05-12T00:48:19.496Z,12.70
2023-05-12T00:50:46.359Z,12.70
2023-05-12T00:53:13.811Z,12.60
2023-05-12T00:55:41.491Z,12.60
2023-05-12T00:58:08.476Z,12.60
2023-05-12T01:00:35.403Z,12.60
2023-05-12T01:03:02.761Z,12.50
2023-05-12T01:05:41.763Z,12.50
2023-05-12T01:08:11.472Z,12.50
2023-05-12T01:10:44.800Z,12.40
2023-05-12T01:13:11.652Z,12.40
2023-05-12T01:15:48.290Z,12.40
2023-05-12T01:18:21.635Z,12.40
2023-05-12T01:20:49.973Z,12.30
2023-05-12T01:23:20.117Z,12.30
2023-05-12T01:25:50.324Z,12.30
2023-05-12T01:28:18.391Z,12.30
2023-05-12T01:30:45.971Z,12.20
2023-05-12T01:33:13.425Z,12.20
2023-05-12T01:35:40.355Z,12.20
2023-05-12T01:38:07.153Z,12.20
2023-05-12T01:40:34.115Z,12.10
2023-05-12T01:43:00.973Z,12.10
2023-05-12T01:45:27.770Z,12.10
2023-05-12T01:47:54.586Z,12.10
2023-05-12T01:50:22.170Z,12.10
2023-05-12T01:52:49.209Z,12.10
2023-05-12T01:55:16.282Z,12.00
2023-05-12T01:57:43.152Z,12.00
2023-05-12T02:00:10.978Z,12.00
2023-05-12T02:02:38.527Z,12.00
2023-05-12T02:05:07.226Z,11.90
2023-05-12T02:07:34.285Z,11.90
2023-05-12T02:10:01.149Z,11.90
2023-05-12T02:12:28.000Z,11.90
2023-05-12T02:14:57.454Z,11.90
2023-05-12T02:17:25.174Z,11.90
2023-05-12T02:19:52.329Z,11.90
2023-05-12T02:22:19.156Z,11.90
2023-05-12T02:24:46.103Z,11.90
2023-05-12T02:27:12.904Z,11.80
2023-05-12T02:29:39.781Z,11.80
2023-05-12T02:32:06.826Z,11.80
2023-05-12T02:34:33.622Z,11.80
2023-05-12T02:37:00.698Z,11.80
2023-05-12T02:39:27.519Z,11.80
2023-05-12T02:41:54.290Z,11.80
2023-05-12T02:44:22.380Z,11.80
2023-05-12T02:46:49.242Z,11.80
2023-05-12T02:49:16.218Z,11.70
2023-05-12T02:51:43.078Z,11.70
2023-05-12T02:54:09.978Z,11.70
2023-05-12T02:56:36.872Z,11.70
2023-05-12T02:59:03.697Z,11.80
2023-05-12T03:01:30.610Z,11.80
2023-05-12T03:03:57.501Z,11.80
2023-05-12T03:06:24.368Z,11.80
2023-05-12T03:08:51.246Z,11.80
2023-05-12T03:11:18.154Z,11.70
2023-05-12T03:13:44.998Z,11.70
2023-05-12T03:16:12.478Z,11.70
2023-05-12T03:18:39.333Z,11.60
2023-05-12T03:21:06.358Z,11.60
2023-05-12T03:23:33.232Z,11.50
2023-05-12T03:26:00.021Z,11.50
2023-05-12T03:28:27.209Z,11.50
2023-05-12T03:30:54.288Z,11.50
2023-05-12T03:33:21.094Z,11.50
2023-05-12T03:35:47.935Z,11.50
2023-05-12T03:38:14.741Z,11.50
2023-05-12T03:40:41.546Z,11.50
2023-05-12T03:43:08.353Z,11.50
2023-05-12T03:45:35.516Z,11.50
2023-05-12T03:48:02.337Z,11.40
2023-05-12T03:50:29.195Z,11.40
2023-05-12T03:52:56.275Z,11.50
2023-05-12T03:55:23.149Z,11.40
2023-05-12T03:57:50.226Z,11.50
2023-05-12T04:00:18.175Z,11.50
2023-05-12T04:02:46.319Z,11.50
2023-05-12T04:05:13.554Z,11.50
2023-05-12T04:07:40.373Z,11.50
2023-05-12T04:10:08.319Z,11.60
2023-05-12T04:12:35.227Z,11.60
2023-05-12T04:15:02.967Z,11.60
2023-05-12T04:17:29.811Z,11.70
2023-05-12T04:19:56.675Z,11.70
2023-05-12T04:22:25.576Z,11.80
2023-05-12T04:24:52.935Z,11.80
2023-05-12T04:27:19.848Z,11.90
2023-05-12T04:29:46.735Z,12.00
2023-05-12T04:32:13.699Z,12.00
2023-05-12T04:34:40.631Z,12.10
2023-05-12T04:37:07.453Z,12.10
2023-05-12T04:39:34.277Z,12.10
2023-05-12T04:42:02.158Z,12.20
2023-05-12T04:44:29.055Z,12.30
2023-05-12T04:46:56.523Z,12.40
2023-05-12T04:49:26.598Z,12.50
2023-05-12T04:51:53.475Z,12.50
2023-05-12T04:54:20.384Z,12.60
2023-05-12T04:56:47.434Z,12.70
2023-05-12T04:59:16.829Z,12.80
2023-05-12T05:01:48.896Z,12.90
2023-05-12T05:04:15.916Z,13.00
2023-05-12T05:06:42.798Z,13.10
2023-05-12T05:09:09.806Z,13.20
2023-05-12T05:11:38.965Z,13.30
2023-05-12T05:14:05.812Z,13.40
2023-05-12T05:16:32.712Z,13.60
2023-05-12T05:18:59.710Z,13.60
2023-05-12T05:21:26.620Z,13.80
2023-05-12T05:23:53.465Z,14.00
2023-05-12T05:26:22.168Z,14.10
2023-05-12T05:28:49.050Z,14.30
2023-05-12T05:31:17.297Z,14.40
2023-05-12T05:33:44.856Z,14.70
2023-05-12T05:36:12.414Z,14.80
2023-05-12T05:38:39.347Z,14.90
2023-05-12T05:41:06.695Z,15.00
2023-05-12T05:43:33.818Z,15.30
2023-05-12T05:46:00.787Z,15.40
2023-05-12T05:48:27.751Z,15.60
2023-05-12T05:50:55.137Z,15.80
2023-05-12T05:53:23.418Z,16.00
2023-05-12T05:55:50.396Z,16.10
2023-05-12T05:58:17.467Z,16.20
2023-05-12T06:00:44.566Z,16.40
2023-05-12T06:03:11.745Z,16.70
2023-05-12T06:05:38.977Z,16.80
2023-05-12T06:08:08.898Z,16.70
2023-05-12T06:10:35.754Z,17.00
2023-05-12T06:13:04.800Z,17.20
2023-05-12T06:15:32.795Z,17.30
2023-05-12T06:18:00.530Z,17.50
2023-05-12T06:20:29.674Z,17.70
2023-05-12T06:22:56.472Z,17.90
2023-05-12T06:25:23.378Z,18.00
2023-05-12T06:27:53.367Z,18.20
2023-05-12T06:30:20.671Z,18.40
2023-05-12T06:32:47.656Z,18.50
2023-05-12T06:35:17.906Z,18.50
2023-05-12T06:37:49.382Z,18.60
2023-05-12T06:40:17.165Z,18.80
2023-05-12T06:42:44.690Z,19.00
2023-05-12T06:45:13.044Z,19.10
2023-05-12T06:47:40.343Z,19.30
2023-05-12T06:50:08.740Z,19.40
2023-05-12T06:52:36.021Z,19.30
2023-05-12T06:55:03.124Z,19.40
2023-05-12T06:57:30.011Z,19.60
2023-05-12T06:59:56.880Z,19.80
2023-05-12T07:02:23.779Z,19.90
2023-05-12T07:04:50.657Z,19.90
2023-05-12T07:07:17.493Z,19.90
2023-05-12T07:09:46.060Z,20.10
2023-05-12T07:12:13.020Z,20.20
2023-05-12T07:14:40.102Z,20.50
2023-05-12T07:17:07.028Z,20.60
2023-05-12T07:19:35.441Z,20.70
2023-05-12T07:22:02.670Z,20.80
2023-05-12T07:24:29.596Z,21.10
2023-05-12T07:26:56.708Z,21.20
2023-05-12T07:29:23.640Z,21.10
2023-05-12T07:31:50.836Z,21.10
2023-05-12T07:34:17.883Z,21.20
2023-05-12T07:36:44.877Z,21.40
2023-05-12T07:39:12.847Z,21.50
2023-05-12T07:41:40.003Z,21.70
2023-05-12T07:44:07.397Z,21.70
2023-05-12T07:46:34.324Z,21.70
2023-05-12T07:49:01.252Z,21.80
2023-05-12T07:51:29.115Z,22.00
2023-05-12T07:53:57.951Z,22.00
2023-05-12T07:56:24.977Z,22.20
2023-05-12T07:58:51.805Z,22.30
2023-05-12T08:01:18.841Z,22.50
2023-05-12T08:03:45.876Z,22.50
2023-05-12T08:06:12.877Z,22.60
2023-05-12T08:08:39.708Z,22.50
2023-05-12T08:11:06.616Z,22.60
2023-05-12T08:13:33.929Z,22.70
2023-05-12T08:16:00.752Z,22.90
2023-05-12T08:18:27.893Z,23.00
2023-05-12T08:20:55.322Z,23.00
2023-05-12T08:23:22.170Z,23.10
2023-05-12T08:25:49.159Z,23.00
2023-05-12T08:28:16.064Z,23.20
2023-05-12T08:30:45.080Z,23.30
2023-05-12T08:33:12.940Z,23.50
2023-05-12T08:35:40.271Z,23.60
2023-05-12T08:38:07.401Z,23.70
2023-05-12T08:40:49.994Z,23.70
2023-05-12T08:43:44.007Z,23.90
2023-05-12T08:46:13.136Z,23.80
2023-05-12T08:48:41.406Z,23.90
2023-05-12T08:51:11.793Z,23.90
2023-05-12T08:53:41.533Z,24.00
2023-05-12T08:58:42.824Z,24.20
2023-05-12T09:01:12.676Z,24.10
2023-05-12T09:03:39.761Z,24.20
2023-05-12T09:06:08.607Z,24.20
2023-05-12T09:08:37.459Z,24.20
2023-05-12T09:11:08.143Z,24.30
2023-05-12T09:14:06.437Z,24.30
2023-05-12T09:16:44.079Z,24.10
2023-05-12T09:19:11.452Z,24.10
2023-05-12T09:21:41.321Z,23.90
2023-05-12T09:24:08.966Z,24.00
2023-05-12T09:26:49.091Z,23.90
2023-05-12T09:29:27.659Z,24.00
2023-05-12T09:31:59.538Z,24.10
2023-05-12T09:34:41.236Z,24.00
2023-05-12T09:37:08.561Z,24.10
2023-05-12T09:39:37.036Z,24.10
2023-05-12T09:42:04.999Z,23.90
2023-05-12T09:44:33.340Z,23.90
2023-05-12T09:47:08.103Z,23.90
2023-05-12T09:49:34.958Z,24.10
2023-05-12T09:52:04.931Z,24.30
2023-05-12T09:54:34.321Z,24.40
2023-05-12T09:57:07.511Z,24.40
2023-05-12T09:59:36.432Z,24.50
2023-05-12T10:02:08.740Z,24.60
2023-05-12T10:05:01.068Z,24.60
2023-05-12T10:07:29.284Z,24.60
2023-05-12T10:10:01.001Z,24.60
2023-05-12T10:12:28.649Z,24.80
2023-05-12T10:14:56.638Z,24.60
2023-05-12T10:17:26.421Z,24.80
2023-05-12T10:19:55.998Z,24.70
2023-05-12T10:22:24.457Z,24.60
2023-05-12T10:24:54.887Z,24.70
2023-05-12T10:27:24.715Z,24.90
2023-05-12T10:29:53.685Z,25.00
2023-05-12T10:32:20.780Z,24.90
2023-05-12T10:34:48.230Z,24.60
2023-05-12T10:37:15.126Z,24.70
2023-05-12T10:39:51.469Z,24.80
2023-05-12T10:42:26.360Z,24.60
2023-05-12T10:44:56.576Z,24.60
2023-05-12T10:47:36.772Z,24.50
2023-05-12T10:50:04.198Z,24.60
2023-05-12T10:52:31.065Z,24.80
2023-05-12T10:55:15.328Z,24.80
2023-05-12T10:57:51.991Z,24.90
2023-05-12T11:00:26.794Z,24.80
2023-05-12T11:02:54.937Z,24.70
2023-05-12T11:05:35.123Z,24.80
2023-05-12T11:08:02.677Z,24.90
2023-05-12T11:10:31.097Z,24.80
2023-05-12T11:12:59.158Z,24.60
2023-05-12T11:15:27.438Z,24.70
2023-05-12T11:17:54.319Z,24.60
2023-05-12T11:20:28.125Z,24.40
2023-05-12T11:22:56.585Z,24.50
2023-05-12T11:25:26.672Z,24.60
2023-05-12T11:27:53.705Z,24.60
2023-05-12T11:30:21.341Z,24.70
2023-05-12T11:32:48.858Z,24.90
2023-05-12T11:35:20.109Z,24.90
2023-05-12T11:37:47.200Z,24.80
2023-05-12T11:40:22.787Z,24.80
2023-05-12T11:42:56.155Z,24.80
2023-05-12T11:45:29.823Z,24.80
2023-05-12T11:48:12.513Z,24.80
2023-05-12T11:50:43.485Z,24.70
2023-05-12T11:53:14.756Z,24.60
2023-05-12T11:55:53.694Z,24.60
2023-05-12T11:58:26.825Z,24.60
2023-05-12T12:00:54.865Z,24.60
2023-05-12T12:03:21.881Z,24.60
2023-05-12T12:06:03.755Z,24.50
2023-05-12T12:08:30.990Z,24.60
2023-05-12T12:10:57.985Z,24.50
2023-05-12T12:13:26.189Z,24.60
2023-05-12T12:15:53.345Z,24.70
2023-05-12T12:18:21.099Z,24.80
2023-05-12T12:20:48.420Z,24.60
2023-05-12T12:23:15.433Z,24.60
2023-05-12T12:25:43.513Z,24.80
2023-05-12T12:28:10.361Z,24.90
2023-05-12T12:30:37.480Z,24.90
2023-05-12T12:33:04.410Z,24.90
2023-05-12T12:35:31.281Z,24.60
2023-05-12T12:37:58.649Z,24.50
2023-05-12T12:40:25.524Z,24.20
2023-05-12T12:42:52.404Z,24.00
2023-05-12T12:45:20.513Z,24.00
2023-05-12T12:47:47.683Z,24.00
2023-05-12T12:50:14.936Z,24.10
2023-05-12T12:52:41.886Z,24.20
2023-05-12T12:55:10.013Z,24.20
2023-05-12T12:57:37.051Z,24.20
2023-05-12T13:00:05.597Z,24.20
2023-05-12T13:02:33.612Z,24.10
2023-05-12T13:05:04.070Z,24.10
2023-05-12T13:07:31.087Z,24.20
2023-05-12T13:09:57.953Z,24.10
2023-05-12T13:12:25.532Z,24.10
2023-05-12T13:14:52.930Z,24.10
2023-05-12T13:17:20.480Z,24.20
2023-05-12T13:19:47.385Z,24.10
2023-05-12T13:22:14.418Z,24.10
2023-05-12T13:24:41.338Z,24.00
2023-05-12T13:27:09.343Z,24.10
2023-05-12T13:29:36.559Z,24.00
2023-05-12T13:32:03.815Z,24.00
2023-05-12T13:34:30.650Z,23.90
2023-05-12T13:36:57.516Z,23.80
2023-05-12T13:39:24.371Z,23.80
2023-05-12T13:41:51.249Z,23.80
2023-05-12T13:44:19.340Z,23.80
2023-05-12T13:46:46.287Z,23.70
2023-05-12T13:49:13.652Z,23.70
2023-05-12T13:51:40.614Z,23.60
2023-05-12T13:54:07.587Z,23.40
2023-05-12T13:56:34.661Z,23.20
2023-05-12T13:59:01.573Z,23.20
2023-05-12T14:01:28.469Z,23.30
2023-05-12T14:03:55.390Z,23.40
2023-05-12T14:06:22.303Z,23.30
2023-05-12T14:08:49.396Z,23.40
2023-05-12T14:11:16.953Z,23.30
2023-05-12T14:13:44.000Z,23.40
2023-05-12T14:16:13.688Z,23.50
2023-05-12T14:18:43.171Z,23.40
2023-05-12T14:21:10.672Z,23.50
2023-05-12T14:23:37.795Z,23.70
2023-05-12T14:26:05.018Z,23.80
2023-05-12T14:28:31.971Z,23.90
2023-05-12T14:30:59.034Z,23.90
2023-05-12T14:33:25.975Z,23.90
2023-05-12T14:36:03.283Z,23.90
2023-05-12T14:38:33.218Z,23.90
2023-05-12T14:41:00.206Z,23.90
2023-05-12T14:43:27.025Z,23.80
2023-05-12T14:45:56.455Z,23.60
2023-05-12T14:48:26.091Z,23.50
2023-05-12T14:50:57.213Z,23.60
2023-05-12T14:53:24.540Z,23.70
2023-05-12T14:55:52.134Z,23.60
2023-05-12T14:58:21.523Z,23.60
2023-05-12T15:00:50.944Z,23.60
2023-05-12T15:03:18.595Z,23.60
2023-05-12T15:06:04.934Z,23.50
2023-05-12T15:08:33.597Z,23.60
2023-05-12T15:11:00.516Z,23.50
2023-05-12T15:13:27.378Z,23.60
2023-05-12T15:15:56.478Z,23.50
2023-05-12T15:18:23.847Z,23.60
2023-05-12T15:20:51.498Z,23.50
2023-05-12T15:23:18.334Z,23.50
2023-05-12T15:25:45.238Z,23.50
2023-05-12T15:28:12.087Z,23.50
2023-05-12T15:30:39.037Z,23.50
2023-05-12T15:33:06.551Z,23.60
2023-05-12T15:35:34.043Z,23.50
2023-05-12T15:38:01.013Z,23.40
2023-05-12T15:40:30.199Z,23.20
2023-05-12T15:42:57.376Z,23.20
2023-05-12T15:45:24.258Z,23.10
2023-05-12T15:47:51.096Z,23.00
2023-05-12T15:50:22.334Z,23.00
2023-05-12T15:52:49.604Z,23.00
2023-05-12T15:55:16.841Z,23.00
2023-05-12T15:57:43.874Z,22.90
2023-05-12T16:00:12.164Z,22.80
2023-05-12T16:02:39.197Z,22.70
2023-05-12T16:05:07.165Z,22.70
2023-05-12T16:07:34.734Z,22.60
2023-05-12T16:10:01.743Z,22.70
2023-05-12T16:12:30.088Z,22.70
2023-05-12T16:14:56.970Z,22.70
2023-05-12T16:17:23.924Z,22.70
2023-05-12T16:19:53.065Z,22.70
2023-05-12T16:22:19.991Z,22.60
2023-05-12T16:24:47.222Z,22.60
2023-05-12T16:27:14.151Z,22.60
2023-05-12T16:29:45.308Z,22.50
2023-05-12T16:32:12.210Z,22.40
2023-05-12T16:34:39.046Z,22.40
2023-05-12T16:37:05.845Z,22.40
2023-05-12T16:39:34.087Z,22.40
2023-05-12T16:42:00.992Z,22.30
2023-05-12T16:44:27.874Z,22.30
2023-05-12T16:46:54.709Z,22.30
2023-05-12T16:49:21.576Z,22.30
2023-05-12T16:51:48.425Z,22.30
2023-05-12T16:54:15.317Z,22.20
2023-05-12T16:56:42.150Z,22.20
2023-05-12T16:59:08.981Z,22.20
2023-05-12T17:01:36.206Z,22.20
2023-05-12T17:04:03.285Z,22.10
2023-05-12T17:06:30.835Z,22.10
2023-05-12T17:08:57.721Z,22.00
2023-05-12T17:11:24.708Z,22.00
2023-05-12T17:13:51.518Z,21.90
2023-05-12T17:16:18.465Z,21.90
2023-05-12T17:21:15.348Z,21.80
2023-05-12T17:23:42.234Z,21.70
2023-05-12T17:26:09.057Z,21.70
2023-05-12T17:28:36.143Z,21.60
2023-05-12T17:31:03.077Z,21.60
2023-05-12T17:33:29.970Z,21.60
2023-05-12T17:36:10.851Z,21.50
2023-05-12T17:38:39.979Z,21.50
2023-05-12T17:41:06.865Z,21.50
2023-05-12T17:43:33.867Z,21.40
2023-05-12T17:46:08.324Z,21.30
2023-05-12T17:48:35.541Z,21.30
2023-05-12T17:51:03.330Z,21.10
2023-05-12T17:53:32.596Z,21.10
2023-05-12T17:56:00.540Z,21.10
2023-05-12T17:58:27.377Z,21.00
2023-05-12T18:00:54.376Z,21.00
2023-05-12T18:03:24.269Z,21.00
2023-05-12T18:05:53.410Z,20.90
2023-05-12T18:08:20.760Z,20.80
2023-05-12T18:10:47.804Z,20.80
2023-05-12T18:13:15.542Z,20.70
2023-05-12T18:15:42.844Z,20.70
2023-05-12T18:18:10.678Z,20.60
2023-05-12T18:20:38.193Z,20.60
2023-05-12T18:23:05.307Z,20.60
2023-05-12T18:25:32.217Z,20.50
2023-05-12T18:27:59.119Z,20.40
2023-05-12T18:30:25.952Z,20.30
2023-05-12T18:32:53.112Z,20.20
2023-05-12T18:35:20.625Z,20.20
2023-05-12T18:37:48.051Z,20.10
2023-05-12T18:40:14.974Z,20.00
2023-05-12T18:42:41.865Z,19.90
2023-05-12T18:45:09.466Z,19.80
2023-05-12T18:47:36.388Z,19.70
2023-05-12T18:50:04.255Z,19.60
2023-05-12T18:52:31.306Z,19.50
2023-05-12T18:54:58.200Z,19.20
2023-05-12T18:57:25.139Z,19.00
2023-05-12T18:59:52.025Z,18.90
2023-05-12T19:02:18.872Z,18.70
2023-05-12T19:04:45.757Z,18.70
2023-05-12T19:07:15.333Z,18.70
2023-05-12T19:09:43.337Z,18.50
2023-05-12T19:12:11.598Z,18.50
2023-05-12T19:14:43.043Z,18.40
2023-05-12T19:17:10.824Z,18.20
2023-05-12T19:19:38.357Z,18.20
2023-05-12T19:22:05.428Z,18.10
2023-05-12T19:24:32.366Z,17.90
2023-05-12T19:26:59.521Z,17.90
2023-05-12T19:29:26.368Z,17.80
2023-05-12T19:31:53.651Z,17.70
2023-05-12T19:34:21.504Z,17.70
2023-05-12T19:36:48.434Z,17.60
2023-05-12T19:39:15.378Z,17.50
2023-05-12T19:41:42.786Z,17.40
2023-05-12T19:44:09.630Z,17.40
2023-05-12T19:46:36.668Z,17.20
2023-05-12T19:49:04.195Z,17.10
2023-05-12T19:51:31.947Z,16.90
2023-05-12T19:53:59.476Z,16.80
2023-05-12T19:56:27.095Z,16.70
2023-05-12T19:58:54.313Z,16.60
2023-05-12T20:01:21.290Z,16.30
2023-05-12T20:03:48.290Z,16.20
2023-05-12T20:06:15.385Z,16.00
2023-05-12T20:08:42.263Z,15.90
2023-05-12T20:11:09.150Z,15.90
2023-05-12T20:13:36.080Z,15.80
2023-05-12T20:16:02.960Z,15.70
2023-05-12T20:18:30.246Z,15.70
2023-05-12T20:20:57.561Z,15.70
2023-05-12T20:23:24.694Z,15.60
2023-05-12T20:25:53.229Z,15.70
2023-05-12T20:28:21.338Z,15.70
2023-05-12T20:30:48.201Z,15.70
2023-05-12T20:33:15.628Z,15.60
2023-05-12T20:35:42.499Z,15.60
2023-05-12T20:38:09.343Z,15.60
2023-05-12T20:40:36.267Z,15.60
2023-05-12T20:43:03.101Z,15.50
2023-05-12T20:45:29.943Z,15.60
2023-05-12T20:47:57.092Z,15.60
2023-05-12T20:50:24.381Z,15.50
2023-05-12T20:52:51.375Z,15.50
2023-05-12T20:55:18.551Z,15.40
2023-05-12T20:57:46.818Z,15.40
2023-05-12T21:00:14.329Z,15.30
2023-05-12T21:02:41.637Z,15.30
2023-05-12T21:05:08.898Z,15.30
2023-05-12T21:07:35.996Z,15.10
2023-05-12T21:10:03.813Z,15.10
2023-05-12T21:12:31.738Z,15.10
2023-05-12T21:14:58.644Z,15.00
2023-05-12T21:17:25.553Z,15.00
2023-05-12T21:19:52.406Z,14.90
2023-05-12T21:22:19.293Z,14.80
2023-05-12T21:24:46.193Z,14.80
2023-05-12T21:27:13.201Z,14.70
2023-05-12T21:29:40.689Z,14.60
2023-05-12T21:32:07.952Z,14.50
2023-05-12T21:34:36.004Z,14.50
2023-05-12T21:37:03.026Z,14.50
2023-05-12T21:39:29.941Z,14.40
2023-05-12T21:41:56.774Z,14.50
2023-05-12T21:44:23.670Z,14.40
2023-05-12T21:46:50.530Z,14.50
2023-05-12T21:49:17.375Z,14.40
2023-05-12T21:51:45.437Z,14.40
2023-05-12T21:54:12.392Z,14.40
2023-05-12T21:56:40.580Z,14.30
2023-05-12T21:59:07.492Z,14.30
2023-05-12T22:01:34.384Z,14.30
2023-05-12T22:04:01.344Z,14.30
2023-05-12T22:06:29.392Z,14.40
2023-05-12T22:08:56.275Z,14.40
2023-05-12T22:11:24.194Z,14.40
2023-05-12T22:13:51.332Z,14.30
2023-05-12T22:16:21.779Z,14.30
2023-05-12T22:18:52.771Z,14.20
2023-05-12T22:21:19.668Z,14.20
2023-05-12T22:23:46.541Z,14.20
2023-05-12T22:26:13.858Z,14.30
2023-05-12T22:28:40.693Z,14.30
2023-05-12T22:31:08.967Z,14.30
2023-05-12T22:33:35.936Z,14.20
2023-05-12T22:36:03.150Z,14.20
2023-05-12T22:38:30.269Z,14.10
2023-05-12T22:40:57.122Z,14.20
2023-05-12T22:43:24.067Z,14.10
2023-05-12T22:45:55.866Z,14.10
2023-05-12T22:48:22.916Z,14.10
2023-05-12T22:50:53.182Z,14.00
2023-05-12T22:53:20.268Z,14.00
2023-05-12T22:55:47.234Z,14.00
2023-05-12T22:58:14.327Z,13.90
2023-05-12T23:00:41.196Z,14.00
2023-05-12T23:03:08.127Z,13.90
2023-05-12T23:05:34.926Z,13.90
2023-05-12T23:08:02.983Z,13.90
2023-05-12T23:10:29.934Z,13.90
2023-05-12T23:12:56.884Z,13.80
2023-05-12T23:15:23.998Z,13.80
2023-05-12T23:17:50.834Z,13.70
2023-05-12T23:20:17.790Z,13.70
2023-05-12T23:22:44.894Z,13.70
2023-05-12T23:25:11.769Z,13.70
2023-05-12T23:27:38.733Z,13.70
2023-05-12T23:30:06.728Z,13.70
2023-05-12T23:32:33.764Z,13.60
2023-05-12T23:35:00.721Z,13.60
2023-05-12T23:37:27.552Z,13.60
2023-05-12T23:39:54.454Z,13.50
2023-05-12T23:42:21.566Z,13.40
2023-05-12T23:44:48.416Z,13.40
2023-05-12T23:47:15.250Z,13.30
2023-05-12T23:49:42.148Z,13.30
2023-05-12T23:52:09.025Z,13.20
2023-05-12T23:54:35.849Z,13.10
2023-05-12T23:57:03.168Z,13.10
2023-05-12T23:59:32.969Z,12.90
